Portada
METAR-TAF:

METAR-TAF

Aeroports :

N'Djamena, Txad

latitud: 12-08N, longitud: 015-02E, altitud: 295 m

Observació

L'informe es va fer fa 51 minuts, a les 02:00 UTC
Vent 1 kt amb direcció variable
Temperatura 27°C
Humitat 94%
Pressió 1009 hPa
Visibilitat 10 km o més
sense núvols per sota de 1500 mi sense presència de cumulonimbus.

METAR: FTTJ 230200Z VRB01KT CAVOK 27/26 Q1009 NOSIG

Hora: 03:51 (02:51 UTC)

Pronòstic

L'informe es va fer fa 3 hores i 51 minuts, a les 23:00 UTC
Pronòstic vàlid del 23 a les 00 UTC al 24 a les 06 UTC
Vent 5 kt amb direcció variable
Visibilitat: 8000 m
Temporalment
l' 23 a les 16 UTC al 23 a les 19 UTC
Visibilitat: 4000 m
Pols estès

TAF: FTTJ 222300Z 2300/2406 VRB05KT 8000 NSC TEMPO 2316/2319 4000 DU

Observacions i pronòstics meteorològics de més de 4000 aeroports (METAR i TAF).

Les estacions disponibles són els punts grocs i vermells al mapa.

Posi el ratolí al punt desitjat per veure el nom de l'estació.

Feu clic per veure les observacions i els pronòstics meteorològics.

Per canviar el mapa: feu clic els botons verds amb una creu de color negre per apropar; al botó verd amb un guió per allunyar la imatge; o en les fletxes verdes per a mapes adjacents.


METAR-TAF: